Date,TemperatureHighF,TemperatureAvgF,TemperatureLowF,DewpointHighF,DewpointAvgF,DewpointLowF,HumidityHigh,HumidityAvg,HumidityLow,PressureMaxIn,PressureMinIn,WindSpeedMaxMPH,WindSpeedAvgMPH,GustSpeedMaxMPH,PrecipitationSumIn
2013-4-1,70,62,54,56,47,37,97,64,33,29.97,29.81,16,3,16,0.00
2013-4-2,66,55,45,42,34,27,76,49,26,30.12,29.96,12,3,14,0.00
2013-4-3,60,52,44,43,33,27,89,51,35,30.16,30.04,18,2,18,0.11
2013-4-4,47,43,40,43,40,37,94,89,79,30.14,29.95,24,5,24,0.21
2013-4-5,69,53,40,49,41,30,97,69,26,30.03,29.92,12,2,13,0.01
2013-4-6,74,59,42,45,39,36,93,51,26,30.16,30.03,14,2,14,0.00
2013-4-7,78,63,48,51,45,38,76,55,36,30.16,30.01,10,2,11,0.00
2013-4-8,80,67,56,57,53,49,86,62,42,30.09,29.99,10,2,10,0.00
2013-4-9,84,68,56,61,57,53,94,70,41,30.13,30.02,10,1,11,0.00
2013-4-10,87,71,57,61,58,54,94,65,38,30.06,29.86,10,1,10,0.00
2013-4-11,81,70,60,67,61,56,97,74,58,29.88,29.58,26,2,26,0.85
2013-4-12,69,62,56,63,50,38,98,69,35,29.85,29.58,16,5,17,0.11
2013-4-13,78,62,49,42,39,32,73,46,22,29.98,29.85,13,2,13,0.00
2013-4-14,63,57,52,56,49,40,91,76,51,30.00,29.85,18,2,18,0.10
2013-4-15,81,65,56,61,58,54,97,79,48,30.09,29.88,13,1,13,0.00
2013-4-16,84,70,60,65,62,58,97,77,48,30.20,30.09,13,1,13,0.00
2013-4-17,85,72,64,66,62,60,93,74,49,30.16,30.01,19,1,19,0.05
2013-4-18,82,70,61,64,61,58,97,75,51,30.03,29.84,17,2,17,0.01
2013-4-19,70,59,46,66,55,40,97,88,78,29.97,29.69,20,4,20,0.49
2013-4-20,67,52,39,40,34,29,80,55,28,30.20,29.97,11,2,13,0.00
2013-4-21,72,57,45,42,39,34,75,51,33,30.31,30.20,19,4,21,0.00
2013-4-22,74,59,48,48,43,39,77,58,39,30.28,30.11,25,4,25,0.00
2013-4-23,78,61,47,50,43,35,69,53,36,30.20,30.02,15,2,15,0.00
2013-4-24,75,63,54,62,56,49,96,79,54,30.07,30.00,12,2,12,0.09
2013-4-25,74,57,45,55,43,34,95,65,30,30.26,30.06,10,2,10,0.00
2013-4-26,79,61,42,49,40,34,86,49,28,30.34,30.21,24,2,24,0.00
2013-4-27,68,60,53,57,53,44,95,79,50,30.30,30.12,16,3,19,0.10
2013-4-28,57,55,54,56,54,52,99,97,93,30.16,29.97,19,2,19,1.41
2013-4-29,77,62,54,61,56,54,99,85,49,30.01,29.88,7,0,8,0.01
2013-4-30,76,60,55,64,58,55,99,93,64,30.02,29.91,11,1,11,0.01